createdAt,value
2018-05-17T00:02:12.882Z,62.80
2018-05-17T00:04:41.081Z,54.37
2018-05-17T00:07:09.287Z,56.10
2018-05-17T00:09:37.492Z,56.50
2018-05-17T00:12:05.717Z,56.63
2018-05-17T00:14:33.939Z,55.03
2018-05-17T00:17:02.220Z,55.07
2018-05-17T00:19:30.471Z,61.40
2018-05-17T00:21:58.704Z,56.17
2018-05-17T00:24:26.962Z,57.57
2018-05-17T00:26:55.151Z,53.73
2018-05-17T00:29:23.368Z,55.77
2018-05-17T00:31:51.578Z,56.60
2018-05-17T00:34:19.804Z,51.53
2018-05-17T00:36:48.022Z,53.93
2018-05-17T00:39:16.227Z,53.50
2018-05-17T00:41:44.632Z,58.97
2018-05-17T00:44:13.627Z,59.03
2018-05-17T00:46:41.835Z,56.37
2018-05-17T00:49:10.036Z,61.40
2018-05-17T00:51:39.045Z,55.17
2018-05-17T00:54:07.261Z,55.63
2018-05-17T00:56:35.487Z,51.80
2018-05-17T00:59:03.797Z,57.53
2018-05-17T01:01:32.036Z,53.03
2018-05-17T01:04:00.215Z,59.90
2018-05-17T01:06:28.397Z,57.00
2018-05-17T01:08:58.246Z,55.23
2018-05-17T01:11:27.016Z,54.03
2018-05-17T01:13:56.036Z,53.50
2018-05-17T01:16:24.826Z,57.67
2018-05-17T01:18:54.562Z,52.90
2018-05-17T01:21:22.773Z,53.13
2018-05-17T01:23:51.052Z,54.67
2018-05-17T01:26:20.515Z,53.93
2018-05-17T01:28:49.535Z,55.70
2018-05-17T01:31:18.299Z,51.57
2018-05-17T01:33:46.798Z,55.70
2018-05-17T01:36:15.737Z,53.13
2018-05-17T01:38:44.663Z,55.07
2018-05-17T01:41:13.120Z,54.60
2018-05-17T01:43:41.687Z,58.80
2018-05-17T01:46:10.792Z,52.83
2018-05-17T01:48:38.971Z,50.43
2018-05-17T01:51:07.154Z,49.57
2018-05-17T01:53:36.269Z,55.17
2018-05-17T01:56:04.462Z,51.03
2018-05-17T01:58:32.780Z,53.33
2018-05-17T02:01:01.706Z,52.53
2018-05-17T02:03:30.708Z,51.07
2018-05-17T02:05:58.905Z,52.40
2018-05-17T02:08:27.081Z,51.93
2018-05-17T02:10:55.286Z,52.50
2018-05-17T02:13:23.464Z,50.27
2018-05-17T02:15:52.404Z,57.20
2018-05-17T02:18:20.597Z,52.77
2018-05-17T02:20:48.799Z,50.77
2018-05-17T02:23:16.985Z,49.17
2018-05-17T02:25:45.187Z,57.17
2018-05-17T02:28:13.370Z,49.87
2018-05-17T02:30:41.620Z,52.33
2018-05-17T02:33:09.822Z,49.13
2018-05-17T02:35:38.020Z,50.57
2018-05-17T02:38:06.202Z,53.63
2018-05-17T02:40:34.393Z,53.13
2018-05-17T02:43:05.899Z,50.37
2018-05-17T02:45:34.108Z,51.13
2018-05-17T02:48:02.289Z,50.03
2018-05-17T02:50:30.459Z,50.00
2018-05-17T02:52:58.665Z,48.67
2018-05-17T02:55:26.849Z,51.83
2018-05-17T02:57:55.377Z,50.63
2018-05-17T03:00:23.577Z,54.50
2018-05-17T03:02:52.540Z,53.03
2018-05-17T03:05:20.717Z,54.03
2018-05-17T03:07:48.911Z,49.20
2018-05-17T03:10:17.073Z,51.57
2018-05-17T03:12:45.261Z,48.77
2018-05-17T03:15:13.777Z,49.87
2018-05-17T03:17:41.962Z,56.07
2018-05-17T03:20:10.140Z,50.90
2018-05-17T03:22:38.343Z,51.40
2018-05-17T03:25:06.519Z,52.80
2018-05-17T03:27:34.696Z,50.37
2018-05-17T03:30:03.731Z,51.10
2018-05-17T03:32:31.906Z,49.57
2018-05-17T03:35:00.826Z,48.53
2018-05-17T03:37:29.018Z,49.83
2018-05-17T03:39:57.449Z,56.07
2018-05-17T03:42:26.605Z,54.33
2018-05-17T03:44:55.137Z,50.60
2018-05-17T03:47:24.138Z,59.33
2018-05-17T03:49:52.597Z,48.20
2018-05-17T03:52:20.816Z,49.07
2018-05-17T03:54:48.982Z,48.13
2018-05-17T03:57:17.157Z,49.77
2018-05-17T03:59:45.356Z,47.93
2018-05-17T04:02:31.285Z,50.80
2018-05-17T04:05:18.065Z,52.60
2018-05-17T04:07:47.056Z,49.10
2018-05-17T04:10:15.232Z,50.80
2018-05-17T04:12:43.439Z,49.43
2018-05-17T04:15:12.434Z,47.03
2018-05-17T04:17:41.885Z,50.90
2018-05-17T04:20:10.076Z,49.87
2018-05-17T04:22:38.248Z,49.37
2018-05-17T04:25:06.672Z,48.37
2018-05-17T04:27:34.884Z,53.10
2018-05-17T04:30:03.103Z,47.37
2018-05-17T04:32:31.664Z,50.63
2018-05-17T04:34:59.848Z,50.83
2018-05-17T04:37:28.020Z,46.90
2018-05-17T04:39:56.200Z,48.33
2018-05-17T04:42:24.403Z,48.20
2018-05-17T04:44:52.694Z,47.77
2018-05-17T04:47:20.861Z,51.60
2018-05-17T04:49:49.065Z,53.00
2018-05-17T04:52:17.259Z,50.17
2018-05-17T04:54:45.447Z,52.37
2018-05-17T04:57:14.043Z,54.87
2018-05-17T04:59:43.223Z,50.40
2018-05-17T05:02:11.396Z,51.23
2018-05-17T05:04:39.587Z,52.80
2018-05-17T05:07:07.885Z,51.43
2018-05-17T05:09:36.192Z,51.70
2018-05-17T05:12:04.721Z,52.83
2018-05-17T05:14:32.885Z,50.60
2018-05-17T05:17:01.063Z,51.47
2018-05-17T05:19:29.257Z,52.10
2018-05-17T05:21:57.932Z,51.73
2018-05-17T05:24:26.120Z,50.13
2018-05-17T05:26:55.753Z,52.90
2018-05-17T05:29:23.940Z,51.63
2018-05-17T05:31:52.716Z,53.23
2018-05-17T05:34:20.923Z,51.13
2018-05-17T05:36:49.934Z,52.17
2018-05-17T05:39:18.104Z,50.00
2018-05-17T05:41:46.307Z,53.50
2018-05-17T05:44:15.860Z,52.17
2018-05-17T05:46:44.393Z,53.43
2018-05-17T05:49:13.547Z,53.67
2018-05-17T05:51:41.706Z,51.63
2018-05-17T05:54:10.602Z,54.73
2018-05-17T05:56:39.979Z,51.60
2018-05-17T05:59:08.208Z,52.33
2018-05-17T06:01:36.664Z,56.10
2018-05-17T06:04:04.868Z,52.90
2018-05-17T06:06:33.041Z,53.43
2018-05-17T06:09:01.210Z,54.77
2018-05-17T06:11:29.441Z,51.17
2018-05-17T06:13:57.638Z,60.57
2018-05-17T06:16:25.810Z,57.17
2018-05-17T06:18:54.017Z,56.60
2018-05-17T06:21:22.192Z,58.00
2018-05-17T06:23:50.401Z,56.57
2018-05-17T06:26:18.613Z,54.67
2018-05-17T06:28:46.804Z,55.33
2018-05-17T06:31:14.984Z,58.03
2018-05-17T06:33:43.178Z,53.47
2018-05-17T06:36:12.074Z,56.27
2018-05-17T06:38:40.303Z,55.83
2018-05-17T06:41:09.365Z,58.57
2018-05-17T06:43:37.612Z,63.43
2018-05-17T06:46:06.482Z,54.17
2018-05-17T06:48:34.684Z,56.10
2018-05-17T06:51:04.312Z,63.07
2018-05-17T06:53:33.438Z,56.97
2018-05-17T06:56:02.469Z,57.87
2018-05-17T06:58:31.142Z,53.90
2018-05-17T07:01:00.139Z,125.00
2018-05-17T07:03:28.354Z,56.33
2018-05-17T07:05:58.272Z,55.67
2018-05-17T07:08:28.021Z,59.00
2018-05-17T07:10:56.860Z,59.00
2018-05-17T07:13:25.061Z,61.07
2018-05-17T07:15:53.257Z,58.77
2018-05-17T07:18:21.487Z,60.77
2018-05-17T07:20:51.399Z,57.17
2018-05-17T07:23:19.622Z,57.23
2018-05-17T07:25:48.919Z,55.90
2018-05-17T07:28:18.868Z,54.87
2018-05-17T07:30:47.063Z,57.63
2018-05-17T07:33:16.231Z,56.40
2018-05-17T07:35:47.476Z,58.33
2018-05-17T07:38:16.010Z,59.23
2018-05-17T07:40:44.194Z,55.33
2018-05-17T07:43:12.718Z,55.70
2018-05-17T07:45:41.208Z,58.93
2018-05-17T07:48:10.093Z,58.10
2018-05-17T07:50:38.271Z,56.83
2018-05-17T07:53:06.474Z,59.47
2018-05-17T07:55:34.690Z,58.27
2018-05-17T07:58:02.868Z,55.17
2018-05-17T08:00:35.028Z,58.80
2018-05-17T08:03:03.894Z,57.13
2018-05-17T08:05:32.733Z,58.33
2018-05-17T08:08:01.495Z,56.03
2018-05-17T08:10:32.345Z,59.47
2018-05-17T08:13:01.867Z,57.17
2018-05-17T08:15:30.888Z,60.40
2018-05-17T08:17:59.621Z,57.47
2018-05-17T08:20:28.694Z,58.20
2018-05-17T08:22:56.895Z,60.30
2018-05-17T08:25:26.197Z,55.80
2018-05-17T08:27:55.292Z,59.03
2018-05-17T08:30:23.690Z,57.73
2018-05-17T08:32:51.919Z,59.10
2018-05-17T08:35:20.960Z,59.07
2018-05-17T08:37:50.016Z,57.73
2018-05-17T08:40:18.596Z,59.97
2018-05-17T08:42:46.832Z,56.83
2018-05-17T08:45:15.008Z,56.50
2018-05-17T08:47:43.471Z,61.80
2018-05-17T08:50:12.377Z,59.27
2018-05-17T08:52:40.565Z,59.73
2018-05-17T08:55:08.821Z,59.90
2018-05-17T08:57:37.031Z,59.17
2018-05-17T09:00:05.928Z,58.63
2018-05-17T09:02:34.167Z,60.00
2018-05-17T09:05:02.390Z,61.90
2018-05-17T09:07:31.483Z,60.07
2018-05-17T09:09:59.777Z,61.80
2018-05-17T09:12:28.544Z,60.83
2018-05-17T09:14:57.228Z,60.40
2018-05-17T09:17:25.512Z,60.40
2018-05-17T09:19:53.782Z,61.50
2018-05-17T09:22:22.637Z,63.13
2018-05-17T09:24:50.876Z,65.60
2018-05-17T09:27:19.942Z,62.27
2018-05-17T09:29:49.736Z,64.57
2018-05-17T09:32:18.688Z,59.70
2018-05-17T09:34:46.889Z,64.43
2018-05-17T09:37:15.072Z,63.57
2018-05-17T09:39:44.400Z,66.63
2018-05-17T09:42:15.185Z,63.27
2018-05-17T09:44:43.373Z,67.93
2018-05-17T09:47:11.577Z,67.70
2018-05-17T09:49:40.707Z,63.47
2018-05-17T09:52:09.260Z,61.30
2018-05-17T09:54:37.433Z,62.97
2018-05-17T09:57:06.314Z,59.80
2018-05-17T09:59:34.495Z,63.80
2018-05-17T10:02:02.704Z,63.80
2018-05-17T10:04:32.128Z,64.93
2018-05-17T10:07:01.483Z,62.80
2018-05-17T10:09:30.551Z,59.43
2018-05-17T10:12:00.523Z,62.73
2018-05-17T10:14:31.076Z,62.73
2018-05-17T10:17:00.056Z,64.57
2018-05-17T10:19:29.907Z,62.07
2018-05-17T10:22:00.232Z,62.10
2018-05-17T10:24:29.789Z,60.10
2018-05-17T10:26:59.024Z,68.20
2018-05-17T10:29:27.439Z,65.30
2018-05-17T10:31:55.593Z,65.33
2018-05-17T10:34:23.791Z,64.77
2018-05-17T10:36:53.765Z,63.07
2018-05-17T10:39:21.977Z,63.27
2018-05-17T10:41:50.977Z,66.27
2018-05-17T10:44:22.078Z,63.20
2018-05-17T10:46:50.284Z,66.23
2018-05-17T10:49:19.376Z,65.20
2018-05-17T10:51:48.886Z,64.80
2018-05-17T10:54:18.532Z,66.40
2018-05-17T10:56:46.705Z,66.37
2018-05-17T10:59:15.855Z,66.43
2018-05-17T11:01:44.537Z,67.43
2018-05-17T11:04:13.165Z,64.73
2018-05-17T11:06:41.447Z,67.10
2018-05-17T11:09:10.647Z,64.37
2018-05-17T11:11:38.862Z,65.47
2018-05-17T11:14:09.064Z,64.33
2018-05-17T11:16:37.257Z,65.43
2018-05-17T11:19:06.033Z,68.10
2018-05-17T11:21:34.508Z,64.50
2018-05-17T11:24:03.790Z,66.37
2018-05-17T11:26:33.699Z,67.57
2018-05-17T11:29:02.281Z,64.67
2018-05-17T11:31:31.505Z,65.77
2018-05-17T11:33:59.839Z,65.37
2018-05-17T11:36:28.928Z,69.17
2018-05-17T11:38:57.614Z,70.07
2018-05-17T11:41:28.031Z,65.77
2018-05-17T11:43:57.451Z,68.23
2018-05-17T11:46:25.643Z,66.70
2018-05-17T11:48:54.117Z,69.43
2018-05-17T11:51:22.305Z,65.07
2018-05-17T11:53:50.582Z,66.13
2018-05-17T11:56:19.137Z,67.43
2018-05-17T11:58:47.344Z,66.67
2018-05-17T12:01:16.601Z,70.63
2018-05-17T12:03:45.738Z,66.03
2018-05-17T12:06:14.866Z,69.70
2018-05-17T12:08:43.596Z,72.07
2018-05-17T12:11:11.798Z,67.87
2018-05-17T12:13:40.058Z,67.20
2018-05-17T12:16:08.247Z,68.80
2018-05-17T12:18:36.468Z,68.83
2018-05-17T12:21:04.662Z,68.27
2018-05-17T12:23:33.661Z,72.87
2018-05-17T12:26:02.684Z,70.03
2018-05-17T12:28:31.807Z,69.30
2018-05-17T12:31:00.004Z,69.37
2018-05-17T12:33:28.224Z,68.47
2018-05-17T12:35:57.211Z,67.27
2018-05-17T12:38:25.421Z,68.33
2018-05-17T12:40:53.616Z,68.00
2018-05-17T12:43:21.826Z,68.70
2018-05-17T12:45:50.535Z,69.87
2018-05-17T12:48:18.741Z,72.77
2018-05-17T12:50:46.941Z,71.10
2018-05-17T12:53:15.944Z,75.90
2018-05-17T12:55:44.152Z,69.80
2018-05-17T12:58:12.332Z,73.20
2018-05-17T13:00:40.498Z,71.33
2018-05-17T13:03:08.709Z,69.80
2018-05-17T13:05:36.881Z,71.13
2018-05-17T13:08:05.058Z,72.57
2018-05-17T13:10:33.252Z,68.60
2018-05-17T13:13:02.304Z,71.07
2018-05-17T13:15:30.502Z,70.60
2018-05-17T13:17:58.715Z,72.07
2018-05-17T13:20:27.768Z,69.93
2018-05-17T13:22:55.957Z,71.87
2018-05-17T13:25:25.046Z,70.90
2018-05-17T13:27:53.226Z,69.43
2018-05-17T13:30:21.568Z,69.07
2018-05-17T13:32:50.642Z,68.97
2018-05-17T13:35:18.873Z,72.03
2018-05-17T13:37:47.209Z,69.83
2018-05-17T13:40:15.611Z,70.87
2018-05-17T13:42:44.613Z,73.63
2018-05-17T13:45:12.787Z,72.67
2018-05-17T13:47:41.057Z,72.63
2018-05-17T13:50:10.897Z,76.50
2018-05-17T13:52:39.941Z,77.00
2018-05-17T13:55:08.145Z,72.17
2018-05-17T13:57:36.494Z,75.37
2018-05-17T14:00:05.518Z,72.83
2018-05-17T14:02:35.093Z,74.23
2018-05-17T14:05:03.312Z,73.97
2018-05-17T14:07:32.445Z,75.23
2018-05-17T14:10:01.213Z,73.37
2018-05-17T14:12:29.431Z,78.93
2018-05-17T14:14:57.613Z,78.30
2018-05-17T14:17:25.987Z,79.30
2018-05-17T14:19:54.880Z,78.00
2018-05-17T14:22:23.053Z,78.20
2018-05-17T14:24:51.254Z,80.07
2018-05-17T14:27:19.474Z,78.20
2018-05-17T14:29:48.032Z,80.30
2018-05-17T14:32:18.436Z,81.37
2018-05-17T14:34:46.633Z,80.23
2018-05-17T14:37:15.401Z,81.57
2018-05-17T14:39:44.563Z,82.90
2018-05-17T14:42:12.821Z,79.50
2018-05-17T14:44:41.064Z,82.07
2018-05-17T14:47:09.270Z,80.83
2018-05-17T14:49:38.195Z,82.73
2018-05-17T14:52:07.207Z,79.90
2018-05-17T14:54:35.418Z,78.87
2018-05-17T14:57:03.634Z,81.77
2018-05-17T14:59:31.838Z,83.40
2018-05-17T15:02:00.067Z,80.43
2018-05-17T15:04:28.254Z,80.17
2018-05-17T15:06:56.611Z,81.03
2018-05-17T15:09:25.355Z,82.97
2018-05-17T15:11:53.528Z,83.10
2018-05-17T15:14:21.706Z,86.67
2018-05-17T15:16:49.916Z,83.43
2018-05-17T15:19:18.904Z,80.80
2018-05-17T15:21:47.880Z,80.70
2018-05-17T15:24:16.133Z,84.37
2018-05-17T15:26:44.308Z,82.00
2018-05-17T15:29:13.305Z,81.83
2018-05-17T15:31:41.505Z,82.33
2018-05-17T15:34:09.701Z,81.60
2018-05-17T15:36:38.602Z,79.33
2018-05-17T15:39:06.844Z,81.97
2018-05-17T15:41:35.124Z,82.40
2018-05-17T15:44:03.312Z,81.20
2018-05-17T15:46:32.449Z,85.53
2018-05-17T15:49:00.727Z,85.37
2018-05-17T15:51:29.739Z,84.33
2018-05-17T15:53:57.974Z,80.50
2018-05-17T15:56:26.601Z,81.33
2018-05-17T15:58:54.777Z,82.20
2018-05-17T16:01:22.966Z,79.83
2018-05-17T16:03:51.143Z,81.13
2018-05-17T16:06:20.805Z,82.83
2018-05-17T16:08:50.053Z,81.70
2018-05-17T16:11:19.057Z,81.77
2018-05-17T16:13:48.034Z,81.20
2018-05-17T16:16:16.232Z,84.50
2018-05-17T16:18:46.504Z,79.90
2018-05-17T16:21:15.148Z,83.63
2018-05-17T16:23:43.784Z,79.47
2018-05-17T16:26:12.093Z,82.10
2018-05-17T16:28:41.217Z,81.80
2018-05-17T16:31:09.433Z,82.87
2018-05-17T16:33:37.623Z,79.83
2018-05-17T16:36:05.859Z,80.50
2018-05-17T16:38:34.119Z,80.20
2018-05-17T16:41:02.326Z,77.47
2018-05-17T16:43:30.621Z,81.37
2018-05-17T16:45:59.623Z,81.43
2018-05-17T16:48:28.000Z,78.40
2018-05-17T16:50:56.163Z,78.90
2018-05-17T16:53:24.695Z,80.03
2018-05-17T16:55:52.846Z,84.13
2018-05-17T16:58:22.460Z,85.70
2018-05-17T17:00:50.637Z,84.10
2018-05-17T17:03:19.595Z,82.30
2018-05-17T17:05:47.816Z,83.13
2018-05-17T17:08:16.062Z,82.83
2018-05-17T17:10:45.338Z,80.03
2018-05-17T17:13:13.717Z,79.83
2018-05-17T17:15:42.589Z,81.47
2018-05-17T17:18:10.791Z,82.30
2018-05-17T17:20:39.304Z,83.20
2018-05-17T17:23:07.623Z,80.43
2018-05-17T17:25:36.004Z,79.53
2018-05-17T17:28:04.260Z,76.47
2018-05-17T17:30:33.384Z,78.70
2018-05-17T17:33:01.590Z,77.70
2018-05-17T17:35:29.785Z,80.07
2018-05-17T17:37:59.832Z,76.57
2018-05-17T17:40:34.302Z,76.90
2018-05-17T17:43:02.514Z,77.57
2018-05-17T17:45:31.553Z,80.07
2018-05-17T17:47:59.887Z,80.63
2018-05-17T17:50:28.109Z,77.73
2018-05-17T17:52:57.453Z,79.10
2018-05-17T17:55:27.308Z,83.53
2018-05-17T17:57:56.941Z,84.07
2018-05-17T18:00:26.579Z,91.03
2018-05-17T18:02:55.769Z,92.87
2018-05-17T18:05:24.753Z,80.27
2018-05-17T18:07:54.135Z,97.67
2018-05-17T18:10:22.912Z,88.33
2018-05-17T18:12:52.877Z,90.57
2018-05-17T18:15:21.122Z,83.93
2018-05-17T18:17:49.298Z,80.70
2018-05-17T18:20:17.526Z,83.53
2018-05-17T18:22:45.807Z,91.43
2018-05-17T18:25:13.936Z,90.40
2018-05-17T18:27:43.454Z,83.57
2018-05-17T18:30:15.408Z,95.47
2018-05-17T18:32:44.489Z,90.47
2018-05-17T18:35:12.620Z,92.23
2018-05-17T18:37:42.001Z,109.43
2018-05-17T18:40:13.558Z,84.70
2018-05-17T18:42:42.335Z,90.80
2018-05-17T18:45:10.596Z,91.60
2018-05-17T18:47:38.796Z,100.90
2018-05-17T18:50:07.896Z,78.60
2018-05-17T18:52:36.090Z,91.77
2018-05-17T18:55:04.998Z,89.53
2018-05-17T18:57:33.172Z,79.50
2018-05-17T19:00:02.305Z,75.53
2018-05-17T19:02:32.096Z,79.17
2018-05-17T19:05:04.708Z,78.13
2018-05-17T19:07:33.579Z,79.37
2018-05-17T19:10:02.683Z,78.27
2018-05-17T19:12:31.246Z,76.77
2018-05-17T19:14:59.452Z,72.20
2018-05-17T19:17:27.737Z,72.63
2018-05-17T19:19:55.884Z,80.53
2018-05-17T19:22:24.944Z,73.60
2018-05-17T19:24:53.220Z,73.37
2018-05-17T19:27:21.419Z,77.27
2018-05-17T19:29:49.616Z,71.33
2018-05-17T19:32:18.560Z,72.13
2018-05-17T19:34:46.847Z,70.77
2018-05-17T19:37:16.124Z,76.17
2018-05-17T19:39:44.213Z,70.60
2018-05-17T19:42:12.729Z,71.53
2018-05-17T19:44:42.426Z,68.77
2018-05-17T19:47:10.712Z,69.03
2018-05-17T19:49:38.888Z,70.17
2018-05-17T19:52:07.114Z,73.17
2018-05-17T19:54:35.293Z,75.30
2018-05-17T19:57:03.512Z,72.90
2018-05-17T19:59:32.957Z,67.27
2018-05-17T20:02:02.312Z,68.67
2018-05-17T20:04:30.528Z,69.87
2018-05-17T20:06:58.811Z,71.40
2018-05-17T20:09:27.766Z,69.37
2018-05-17T20:11:57.236Z,66.57
2018-05-17T20:14:26.316Z,66.30
2018-05-17T20:16:54.522Z,72.30
2018-05-17T20:19:22.753Z,70.97
2018-05-17T20:21:50.979Z,69.40
2018-05-17T20:24:19.205Z,72.43
2018-05-17T20:26:51.251Z,65.40
2018-05-17T20:29:19.495Z,74.57
2018-05-17T20:31:47.716Z,67.97
2018-05-17T20:34:16.028Z,64.13
2018-05-17T20:36:44.268Z,65.60
2018-05-17T20:39:12.480Z,64.57
2018-05-17T20:41:40.713Z,72.17
2018-05-17T20:44:09.824Z,68.53
2018-05-17T20:46:38.023Z,63.07
2018-05-17T20:49:06.297Z,63.50
2018-05-17T20:51:34.480Z,62.37
2018-05-17T20:54:02.670Z,64.47
2018-05-17T20:56:30.883Z,65.30
2018-05-17T20:58:59.153Z,68.70
2018-05-17T21:01:27.368Z,64.40
2018-05-17T21:03:57.216Z,62.50
2018-05-17T21:06:25.409Z,63.40
2018-05-17T21:08:53.592Z,62.87
2018-05-17T21:11:21.807Z,62.53
2018-05-17T21:13:50.007Z,63.87
2018-05-17T21:16:18.460Z,61.30
2018-05-17T21:18:46.664Z,62.23
2018-05-17T21:21:14.877Z,63.67
2018-05-17T21:23:44.307Z,61.90
2018-05-17T21:26:13.629Z,61.13
2018-05-17T21:28:42.600Z,60.63
2018-05-17T21:31:12.011Z,60.07
2018-05-17T21:33:41.467Z,59.63
2018-05-17T21:36:10.534Z,64.47
2018-05-17T21:38:38.787Z,59.80
2018-05-17T21:41:08.007Z,61.40
2018-05-17T21:43:37.051Z,59.83
2018-05-17T21:46:06.416Z,59.43
2018-05-17T21:48:34.625Z,60.90
2018-05-17T21:51:03.949Z,57.23
2018-05-17T21:53:32.173Z,58.03
2018-05-17T21:56:00.354Z,59.07
2018-05-17T21:58:32.745Z,59.40
2018-05-17T22:01:01.189Z,60.87
2018-05-17T22:03:29.449Z,56.70
2018-05-17T22:05:57.990Z,59.13
2018-05-17T22:08:26.225Z,60.83
2018-05-17T22:10:54.424Z,57.67
2018-05-17T22:13:22.653Z,56.30
2018-05-17T22:15:51.257Z,58.90
2018-05-17T22:18:19.506Z,58.47
2018-05-17T22:20:47.784Z,55.17
2018-05-17T22:23:15.987Z,54.70
2018-05-17T22:25:44.172Z,59.93
2018-05-17T22:28:13.209Z,55.17
2018-05-17T22:30:45.085Z,57.27
2018-05-17T22:33:13.285Z,55.40
2018-05-17T22:35:42.286Z,55.83
2018-05-17T22:38:11.820Z,56.73
2018-05-17T22:40:40.983Z,54.77
2018-05-17T22:43:10.023Z,60.10
2018-05-17T22:45:38.230Z,56.67
2018-05-17T22:48:06.437Z,55.77
2018-05-17T22:50:34.630Z,53.57
2018-05-17T22:53:03.261Z,53.37
2018-05-17T22:55:31.501Z,54.60
2018-05-17T22:58:18.147Z,55.53
2018-05-17T23:00:46.492Z,153.83
2018-05-17T23:03:14.669Z,56.03
2018-05-17T23:05:42.869Z,55.00
2018-05-17T23:08:11.047Z,55.27
2018-05-17T23:10:39.246Z,53.07
2018-05-17T23:13:07.478Z,58.00
2018-05-17T23:15:36.667Z,55.10
2018-05-17T23:18:05.249Z,58.60
2018-05-17T23:20:33.489Z,54.50
2018-05-17T23:23:01.664Z,55.77
2018-05-17T23:25:29.904Z,53.27
2018-05-17T23:27:58.111Z,53.23
2018-05-17T23:30:26.325Z,52.90
2018-05-17T23:32:54.528Z,52.70
2018-05-17T23:35:22.842Z,53.67
2018-05-17T23:37:51.036Z,52.30
2018-05-17T23:40:36.869Z,54.40
2018-05-17T23:43:05.046Z,52.77
2018-05-17T23:45:33.217Z,53.00
2018-05-17T23:48:01.420Z,52.87
2018-05-17T23:50:29.603Z,53.90
2018-05-17T23:52:57.791Z,52.03
2018-05-17T23:55:25.989Z,52.63
2018-05-17T23:57:54.181Z,52.27
